Time;durP1;ratioP1;P1;durP2;ratioP2;P2;SDS_P1;SDS_P2;PMS_P1;PMS_P2;Temp;Humidity;BMP_temperature;BMP_pressure;BME280_temperature;BME280_humidity;BME280_pressure;Samples;Min_cycle;Max_cycle;Signal;HPM_P1;HPM_P2
2022/01/12 00:01:05;;;;;;;21.10;11.37;;;;;;;;;;4744719;30;20570;-92
2022/01/12 00:04:10;;;;;;;21.90;11.60;;;;;;;;;;4734771;30;20628;-92
2022/01/12 00:07:14;;;;;;;20.50;10.73;;;;;;;;;;4734474;30;20636;-92
2022/01/12 00:10:20;;;;;;;19.57;11.33;;;;;;;;;;4734896;30;20627;-92
2022/01/12 00:13:25;;;;;;;22.13;11.93;;;;;;;;;;4734546;30;20643;-92
2022/01/12 00:16:29;;;;;;;18.87;11.73;;;;;;;;;;4745129;30;20549;-92
2022/01/12 00:19:33;;;;;;;20.53;11.40;;;;;;;;;;4744702;30;20573;-92
2022/01/12 00:22:39;;;;;;;16.87;11.13;;;;;;;;;;4734427;30;20651;-90
2022/01/12 00:25:57;;;;;;;18.70;11.77;;;;;;;;;;4734118;30;20553;-90
2022/01/12 00:35:57;;;;;;;25.27;11.53;;;;;;;;;;4771745;30;20615;-91
2022/01/12 00:39:04;;;;;;;19.23;11.03;;;;;;;;;;4751115;30;20631;-91
2022/01/12 00:42:11;;;;;;;20.40;11.83;;;;;;;;;;4761319;30;20646;-91
2022/01/12 00:45:18;;;;;;;20.13;11.77;;;;;;;;;;4751382;30;21115;-91
2022/01/12 00:48:22;;;;;;;19.37;12.10;;;;;;;;;;4761128;30;20587;-91
2022/01/12 00:51:31;;;;;;;18.87;11.67;;;;;;;;;;4750635;30;20647;-91
2022/01/12 00:54:36;;;;;;;19.13;10.33;;;;;;;;;;4751231;30;20612;-91
2022/01/12 00:57:40;;;;;;;20.90;11.77;;;;;;;;;;4733513;30;20581;-91
2022/01/12 01:00:45;;;;;;;24.90;11.40;;;;;;;;;;4733336;30;20561;-90
2022/01/12 01:03:50;;;;;;;21.30;12.53;;;;;;;;;;4780768;24;20811;-84
2022/01/12 01:06:55;;;;;;;20.20;12.37;;;;;;;;;;4761413;30;20563;-84
2022/01/12 01:10:08;;;;;;;21.90;12.17;;;;;;;;;;4761376;30;20563;-84
2022/01/12 01:13:26;;;;;;;23.90;12.97;;;;;;;;;;4769910;30;20644;-84
2022/01/12 01:26:32;;;;;;;22.47;12.23;;;;;;;;;;4736426;30;20574;-84
2022/01/12 01:29:36;;;;;;;21.17;11.17;;;;;;;;;;4725911;30;20621;-84
2022/01/12 01:32:41;;;;;;;20.17;11.67;;;;;;;;;;4726100;30;20721;-85
2022/01/12 01:35:54;;;;;;;23.77;12.87;;;;;;;;;;4735680;30;20677;-85
2022/01/12 01:39:01;;;;;;;24.20;13.90;;;;;;;;;;4716473;30;21208;-85
2022/01/12 01:42:17;;;;;;;24.10;13.57;;;;;;;;;;4715928;30;20664;-86
2022/01/12 01:55:33;;;;;;;25.13;14.10;;;;;;;;;;4725746;30;21184;-86
2022/01/12 01:58:38;;;;;;;21.33;12.70;;;;;;;;;;4726158;30;20578;-86
2022/01/12 02:01:42;;;;;;;24.70;13.87;;;;;;;;;;4732854;30;20562;-85
2022/01/12 02:04:46;;;;;;;23.70;13.87;;;;;;;;;;4733137;30;20552;-85
2022/01/12 02:07:50;;;;;;;24.00;13.90;;;;;;;;;;4742693;30;20608;-85
2022/01/12 02:10:59;;;;;;;23.50;13.33;;;;;;;;;;4733571;30;20612;-85
2022/01/12 02:14:05;;;;;;;25.20;13.77;;;;;;;;;;4733454;30;20557;-86
2022/01/12 02:17:17;;;;;;;22.47;14.17;;;;;;;;;;4742821;30;20592;-86
2022/01/12 02:35:10;;;;;;;23.63;13.80;;;;;;;;;;4743004;30;20584;-85
2022/01/12 02:40:52;;;;;;;24.97;14.30;;;;;;;;;;4752434;30;20561;-85
2022/01/12 02:50:45;;;;;;;27.07;14.80;;;;;;;;;;4752447;30;20557;-85
2022/01/12 02:53:51;;;;;;;26.80;14.13;;;;;;;;;;4732123;30;20643;-85
2022/01/12 02:56:56;;;;;;;26.53;14.30;;;;;;;;;;4742082;30;20590;-85
2022/01/12 03:03:11;;;;;;;34.03;17.40;;;;;;;;;;4742076;30;20656;-85
2022/01/12 03:06:18;;;;;;;34.77;16.70;;;;;;;;;;4732148;30;20914;-86
2022/01/12 03:09:22;;;;;;;26.90;14.23;;;;;;;;;;4731367;30;20612;-85
2022/01/12 03:12:26;;;;;;;25.50;14.20;;;;;;;;;;4734521;30;20648;-85
2022/01/12 03:15:38;;;;;;;24.03;13.20;;;;;;;;;;4715443;30;20624;-85
2022/01/12 03:18:45;;;;;;;27.47;14.83;;;;;;;;;;4728069;30;20639;-86
2022/01/12 03:21:49;;;;;;;24.00;13.83;;;;;;;;;;4717653;30;20578;-85
2022/01/12 03:24:54;;;;;;;25.03;14.20;;;;;;;;;;4717876;30;20629;-85
2022/01/12 03:28:01;;;;;;;21.80;13.90;;;;;;;;;;4727320;30;21160;-85
2022/01/12 03:31:14;;;;;;;24.50;14.07;;;;;;;;;;4717326;30;21240;-85
2022/01/12 03:34:26;;;;;;;21.23;12.33;;;;;;;;;;4717301;30;20581;-85
2022/01/12 03:40:44;;;;;;;23.17;13.07;;;;;;;;;;4735094;30;20639;-85
2022/01/12 03:43:49;;;;;;;24.63;14.47;;;;;;;;;;4734642;30;20639;-85
2022/01/12 03:46:53;;;;;;;25.23;13.87;;;;;;;;;;4734830;30;20564;-85
2022/01/12 03:49:57;;;;;;;24.33;14.30;;;;;;;;;;4744933;30;21104;-85
2022/01/12 03:53:01;;;;;;;24.80;13.77;;;;;;;;;;4734965;30;20663;-85
2022/01/12 03:56:06;;;;;;;25.73;13.63;;;;;;;;;;4734760;30;20667;-85
2022/01/12 03:59:11;;;;;;;27.03;15.03;;;;;;;;;;4734847;30;20584;-85
2022/01/12 04:02:16;;;;;;;26.00;13.83;;;;;;;;;;4734387;30;20697;-85
2022/01/12 04:08:18;;;;;;;27.27;14.90;;;;;;;;;;4727029;30;20608;-85
2022/01/12 04:08:53;;;;;;;26.30;14.00;;;;;;;;;;4727353;30;20636;-85
2022/01/12 04:11:57;;;;;;;25.27;14.70;;;;;;;;;;4729386;30;20691;-86
2022/01/12 04:15:02;;;;;;;27.67;15.60;;;;;;;;;;4744997;30;20564;-85
2022/01/12 04:18:07;;;;;;;26.97;14.63;;;;;;;;;;4735056;30;20914;-85
2022/01/12 04:21:12;;;;;;;29.70;15.90;;;;;;;;;;4744573;30;20616;-85
2022/01/12 04:24:17;;;;;;;24.40;14.37;;;;;;;;;;4744544;30;20556;-86
2022/01/12 04:27:21;;;;;;;26.17;14.37;;;;;;;;;;4734473;30;20556;-85
2022/01/12 04:30:25;;;;;;;28.70;15.27;;;;;;;;;;4743854;30;21197;-85
2022/01/12 04:33:30;;;;;;;32.67;16.17;;;;;;;;;;4734631;30;20643;-85
2022/01/12 04:36:34;;;;;;;30.97;16.20;;;;;;;;;;4734082;30;20632;-85
2022/01/12 04:39:38;;;;;;;28.40;15.00;;;;;;;;;;4734170;30;20560;-85
2022/01/12 04:42:43;;;;;;;32.00;15.90;;;;;;;;;;4733934;30;20647;-86
2022/01/12 04:49:08;;;;;;;29.30;15.57;;;;;;;;;;4744304;30;20945;-85
2022/01/12 04:52:13;;;;;;;29.10;14.80;;;;;;;;;;4755005;30;21036;-85
2022/01/12 04:55:18;;;;;;;28.97;16.33;;;;;;;;;;4744152;30;21112;-85
2022/01/12 04:58:22;;;;;;;28.30;15.73;;;;;;;;;;4735823;30;20557;-86
2022/01/12 05:01:28;;;;;;;31.83;16.47;;;;;;;;;;4726637;30;20617;-85
2022/01/12 05:08:13;;;;;;;30.40;16.43;;;;;;;;;;4743969;30;20934;-85
2022/01/12 05:15:11;;;;;;;30.90;16.83;;;;;;;;;;4680999;30;20580;-85
2022/01/12 05:18:15;;;;;;;31.83;15.67;;;;;;;;;;4692540;30;20631;-85
2022/01/12 05:21:21;;;;;;;27.73;16.23;;;;;;;;;;4716405;30;20584;-85
2022/01/12 05:24:26;;;;;;;29.60;16.00;;;;;;;;;;4725988;30;20620;-85
2022/01/12 05:27:30;;;;;;;25.97;15.17;;;;;;;;;;4715938;30;21139;-85
2022/01/12 05:30:34;;;;;;;29.17;17.10;;;;;;;;;;4725735;30;20706;-85
2022/01/12 05:33:44;;;;;;;29.27;16.67;;;;;;;;;;4715635;30;20660;-85
2022/01/12 05:36:48;;;;;;;30.20;16.53;;;;;;;;;;4725673;30;20664;-85
2022/01/12 05:39:53;;;;;;;32.20;16.10;;;;;;;;;;4716385;30;20697;-86
2022/01/12 05:43:01;;;;;;;27.17;15.53;;;;;;;;;;4715733;30;20653;-85
2022/01/12 05:46:14;;;;;;;26.93;14.63;;;;;;;;;;4716051;30;20581;-85
2022/01/12 05:49:36;;;;;;;27.60;16.27;;;;;;;;;;4715982;30;20582;-85
2022/01/12 05:52:42;;;;;;;28.30;15.53;;;;;;;;;;4726180;30;20632;-85
2022/01/12 05:55:46;;;;;;;29.87;15.67;;;;;;;;;;4735431;30;20613;-85
2022/01/12 05:58:50;;;;;;;27.50;14.87;;;;;;;;;;4725280;30;20577;-85
2022/01/12 06:01:57;;;;;;;27.33;15.03;;;;;;;;;;4725462;30;20702;-86
2022/01/12 06:05:03;;;;;;;27.67;14.50;;;;;;;;;;4717090;30;20558;-86
2022/01/12 06:08:07;;;;;;;31.70;17.13;;;;;;;;;;4715894;30;20573;-86
2022/01/12 06:11:12;;;;;;;31.37;15.87;;;;;;;;;;4724891;30;20624;-86
2022/01/12 06:14:22;;;;;;;31.97;15.67;;;;;;;;;;4714986;30;20585;-90
2022/01/12 06:17:26;;;;;;;28.87;15.20;;;;;;;;;;4724875;30;20625;-89
2022/01/12 06:20:30;;;;;;;28.47;15.07;;;;;;;;;;4725947;30;20636;-86
2022/01/12 06:23:58;;;;;;;27.30;13.57;;;;;;;;;;4736553;30;20684;-85
2022/01/12 06:27:04;;;;;;;24.57;14.47;;;;;;;;;;4716302;30;20569;-85
2022/01/12 06:33:21;;;;;;;27.80;15.00;;;;;;;;;;4742332;30;20650;-86
2022/01/12 06:36:26;;;;;;;28.10;14.20;;;;;;;;;;4743167;30;20659;-85
2022/01/12 06:39:30;;;;;;;27.33;14.00;;;;;;;;;;4753692;30;20612;-85
2022/01/12 06:42:34;;;;;;;27.70;15.70;;;;;;;;;;4732100;30;20645;-85
2022/01/12 06:45:39;;;;;;;29.80;14.70;;;;;;;;;;4732267;30;20556;-85
2022/01/12 06:48:44;;;;;;;28.00;15.00;;;;;;;;;;4731929;30;20620;-85
2022/01/12 06:51:49;;;;;;;26.63;14.30;;;;;;;;;;4745856;30;20553;-85
2022/01/12 06:54:54;;;;;;;27.00;15.87;;;;;;;;;;4735649;30;20564;-85
2022/01/12 06:57:58;;;;;;;33.97;18.10;;;;;;;;;;4755706;30;20989;-85
2022/01/12 07:01:03;;;;;;;32.83;17.30;;;;;;;;;;4735809;30;20627;-85
2022/01/12 07:04:11;;;;;;;30.83;16.87;;;;;;;;;;4745526;30;20557;-87
2022/01/12 07:07:15;;;;;;;30.77;14.93;;;;;;;;;;4734806;30;21027;-86
2022/01/12 07:10:21;;;;;;;29.37;15.93;;;;;;;;;;4744879;30;20556;-87
2022/01/12 07:13:25;;;;;;;23.57;11.70;;;;;;;;;;4744737;30;21222;-85
2022/01/12 07:16:30;;;;;;;40.00;18.33;;;;;;;;;;4734602;30;20632;-86
2022/01/12 07:19:34;;;;;;;35.07;18.93;;;;;;;;;;4734281;30;20584;-87
2022/01/12 07:22:38;;;;;;;40.73;20.87;;;;;;;;;;4734380;30;20639;-87
2022/01/12 07:25:43;;;;;;;40.00;19.43;;;;;;;;;;4754625;30;20627;-87
2022/01/12 07:28:48;;;;;;;45.83;21.50;;;;;;;;;;4734270;30;20573;-86
2022/01/12 07:31:52;;;;;;;37.10;19.07;;;;;;;;;;4744388;30;20560;-87
2022/01/12 07:34:56;;;;;;;34.47;17.83;;;;;;;;;;4734394;30;20568;-86
2022/01/12 07:38:01;;;;;;;26.40;14.83;;;;;;;;;;4726458;30;21022;-86
2022/01/12 07:41:05;;;;;;;24.53;14.70;;;;;;;;;;4728981;30;21141;-86
2022/01/12 07:44:09;;;;;;;35.83;21.03;;;;;;;;;;4733604;30;20623;-86
2022/01/12 07:47:13;;;;;;;30.00;16.53;;;;;;;;;;4734219;30;20552;-86
2022/01/12 07:50:17;;;;;;;31.70;16.80;;;;;;;;;;4733888;30;20628;-86
2022/01/12 07:53:21;;;;;;;28.30;15.17;;;;;;;;;;4737496;30;20648;-85
2022/01/12 07:56:26;;;;;;;31.77;15.87;;;;;;;;;;4716146;30;20668;-86
2022/01/12 07:59:30;;;;;;;33.00;17.03;;;;;;;;;;4743461;30;21191;-86
2022/01/12 08:02:34;;;;;;;32.30;15.43;;;;;;;;;;4725471;30;20688;-86
2022/01/12 08:05:38;;;;;;;28.50;14.67;;;;;;;;;;4741174;30;20620;-86
2022/01/12 08:08:42;;;;;;;26.73;14.83;;;;;;;;;;4726360;30;20577;-86
2022/01/12 08:11:46;;;;;;;26.77;14.90;;;;;;;;;;4739996;30;20612;-86
2022/01/12 08:14:50;;;;;;;27.87;14.43;;;;;;;;;;4727767;30;20631;-86
2022/01/12 08:17:54;;;;;;;28.10;15.27;;;;;;;;;;4743317;30;21278;-86
2022/01/12 08:20:58;;;;;;;31.30;15.87;;;;;;;;;;4743695;30;20556;-86
2022/01/12 08:24:02;;;;;;;27.10;15.77;;;;;;;;;;4733554;30;20635;-86
2022/01/12 08:27:07;;;;;;;27.10;15.87;;;;;;;;;;4743851;30;20557;-86
2022/01/12 08:30:16;;;;;;;30.53;15.70;;;;;;;;;;4728026;30;20621;-86
2022/01/12 08:33:21;;;;;;;26.60;15.60;;;;;;;;;;4715605;30;20637;-86
2022/01/12 08:36:25;;;;;;;30.40;17.57;;;;;;;;;;4716021;30;20557;-86
2022/01/12 08:39:29;;;;;;;32.17;16.47;;;;;;;;;;4726316;30;20566;-86
2022/01/12 08:42:33;;;;;;;33.07;16.27;;;;;;;;;;4718530;30;20640;-86
2022/01/12 08:45:37;;;;;;;34.83;18.37;;;;;;;;;;4736174;30;20585;-86
2022/01/12 08:48:42;;;;;;;30.03;16.57;;;;;;;;;;4725590;30;20923;-86
2022/01/12 08:51:46;;;;;;;30.97;16.57;;;;;;;;;;4726201;30;21125;-86
2022/01/12 08:54:51;;;;;;;33.17;17.53;;;;;;;;;;4717012;30;20628;-86
2022/01/12 08:57:58;;;;;;;26.80;15.33;;;;;;;;;;4715784;30;20664;-86
2022/01/12 09:01:04;;;;;;;30.20;16.43;;;;;;;;;;4735471;30;20569;-86
2022/01/12 09:04:08;;;;;;;29.70;16.60;;;;;;;;;;4715351;30;21102;-86
2022/01/12 09:07:12;;;;;;;30.83;16.33;;;;;;;;;;4724192;30;20600;-86
2022/01/12 09:10:16;;;;;;;31.20;15.93;;;;;;;;;;4732697;30;20581;-86
2022/01/12 09:13:20;;;;;;;32.27;18.10;;;;;;;;;;4742101;30;20635;-86
2022/01/12 09:16:24;;;;;;;36.70;18.00;;;;;;;;;;4742599;30;20572;-86
2022/01/12 09:19:29;;;;;;;30.80;17.03;;;;;;;;;;4732446;30;20577;-86
2022/01/12 09:22:34;;;;;;;29.90;17.70;;;;;;;;;;4742409;30;20639;-86
2022/01/12 09:25:39;;;;;;;31.73;18.30;;;;;;;;;;4732754;30;20616;-87
2022/01/12 09:28:45;;;;;;;28.50;17.13;;;;;;;;;;4742452;30;20793;-87
2022/01/12 09:31:50;;;;;;;32.13;18.13;;;;;;;;;;4732420;30;20565;-86
2022/01/12 09:34:54;;;;;;;30.00;17.40;;;;;;;;;;4732296;30;20568;-86
2022/01/12 09:37:58;;;;;;;30.70;17.73;;;;;;;;;;4752428;30;21192;-86
2022/01/12 09:41:04;;;;;;;29.30;17.13;;;;;;;;;;4742476;30;21116;-86
2022/01/12 09:44:08;;;;;;;33.70;18.40;;;;;;;;;;4752466;30;20561;-86
2022/01/12 09:47:12;;;;;;;30.00;17.50;;;;;;;;;;4742306;30;20557;-87
2022/01/12 09:50:23;;;;;;;32.77;17.90;;;;;;;;;;4732192;30;20561;-87
2022/01/12 09:53:29;;;;;;;33.30;19.03;;;;;;;;;;4732132;30;20667;-86
2022/01/12 09:56:33;;;;;;;33.47;18.03;;;;;;;;;;4723606;30;20613;-86
2022/01/12 09:59:44;;;;;;;29.77;17.00;;;;;;;;;;4724500;30;20570;-86
2022/01/12 10:02:48;;;;;;;31.40;16.40;;;;;;;;;;4724472;30;20668;-86
2022/01/12 10:05:53;;;;;;;32.73;17.33;;;;;;;;;;4714542;30;20625;-86
2022/01/12 10:08:57;;;;;;;34.03;18.40;;;;;;;;;;4734311;30;20609;-87
2022/01/12 10:12:07;;;;;;;32.23;17.43;;;;;;;;;;4724400;30;20991;-87
2022/01/12 10:15:15;;;;;;;31.93;19.20;;;;;;;;;;4724552;30;20629;-87
2022/01/12 10:18:20;;;;;;;30.23;16.53;;;;;;;;;;4724369;30;20621;-87
2022/01/12 10:21:38;;;;;;;33.03;18.40;;;;;;;;;;4724394;30;20578;-87
2022/01/12 10:24:45;;;;;;;30.53;16.50;;;;;;;;;;4726016;30;20562;-87
2022/01/12 10:27:50;;;;;;;31.40;17.47;;;;;;;;;;4717981;30;20557;-87
2022/01/12 10:30:55;;;;;;;29.40;17.43;;;;;;;;;;4727888;30;20561;-87
2022/01/12 10:34:03;;;;;;;30.37;18.97;;;;;;;;;;4717585;30;20636;-86
2022/01/12 10:37:09;;;;;;;35.53;17.73;;;;;;;;;;4717769;30;20557;-87
2022/01/12 10:40:13;;;;;;;32.37;20.90;;;;;;;;;;4731494;30;20604;-86
2022/01/12 10:43:47;;;;;;;39.30;19.33;;;;;;;;;;4728907;30;20664;-86
2022/01/12 10:47:06;;;;;;;32.60;17.53;;;;;;;;;;4718418;30;20562;-87
2022/01/12 10:50:11;;;;;;;33.00;18.20;;;;;;;;;;4727670;30;20558;-87
2022/01/12 10:53:26;;;;;;;31.83;17.93;;;;;;;;;;4717651;30;20644;-87
2022/01/12 10:56:31;;;;;;;44.63;22.93;;;;;;;;;;4717454;30;20566;-87
2022/01/12 10:59:37;;;;;;;39.73;18.87;;;;;;;;;;4727302;30;20941;-87
2022/01/12 11:02:41;;;;;;;32.47;18.37;;;;;;;;;;4717256;30;21111;-86
2022/01/12 11:05:47;;;;;;;49.23;25.93;;;;;;;;;;4717321;30;20561;-87
2022/01/12 11:08:52;;;;;;;43.77;23.57;;;;;;;;;;4727609;30;21106;-86
2022/01/12 11:11:56;;;;;;;35.03;18.03;;;;;;;;;;4747460;30;20569;-86
2022/01/12 11:15:00;;;;;;;31.23;18.03;;;;;;;;;;4727584;30;20565;-85
2022/01/12 11:18:04;;;;;;;29.47;17.63;;;;;;;;;;4727669;30;20609;-86
2022/01/12 11:21:21;;;;;;;30.63;18.00;;;;;;;;;;4726997;30;20616;-86
2022/01/12 11:24:28;;;;;;;34.17;18.27;;;;;;;;;;4737554;30;20558;-86
2022/01/12 11:27:32;;;;;;;34.87;18.53;;;;;;;;;;4727692;30;20558;-86
2022/01/12 11:30:40;;;;;;;31.97;19.07;;;;;;;;;;4727668;30;21113;-86
2022/01/12 11:33:45;;;;;;;32.73;18.93;;;;;;;;;;4737112;30;20644;-86
2022/01/12 11:36:49;;;;;;;36.20;18.33;;;;;;;;;;4726579;30;20562;-86
2022/01/12 11:39:53;;;;;;;34.27;18.67;;;;;;;;;;4727031;30;20598;-86
2022/01/12 11:42:57;;;;;;;32.57;18.80;;;;;;;;;;4736656;30;20632;-84
2022/01/12 11:46:10;;;;;;;31.50;18.53;;;;;;;;;;4716281;30;20625;-87
2022/01/12 11:49:32;;;;;;;34.53;18.97;;;;;;;;;;4752097;30;20615;-86
2022/01/12 11:52:36;;;;;;;35.13;19.77;;;;;;;;;;4743695;30;20644;-86
2022/01/12 11:55:40;;;;;;;45.73;20.77;;;;;;;;;;4743955;30;20619;-86
2022/01/12 11:58:59;;;;;;;32.63;17.83;;;;;;;;;;4733504;30;20671;-87
2022/01/12 12:02:12;;;;;;;26.40;15.73;;;;;;;;;;4753734;30;20656;-87
2022/01/12 12:05:18;;;;;;;24.73;15.70;;;;;;;;;;4743900;30;20568;-87
2022/01/12 12:08:24;;;;;;;31.67;16.97;;;;;;;;;;4716369;30;20573;-87
2022/01/12 12:11:30;;;;;;;25.97;15.83;;;;;;;;;;4716986;30;20577;-87
2022/01/12 12:14:33;;;;;;;29.37;17.13;;;;;;;;;;4743693;30;20933;-88
2022/01/12 12:17:40;;;;;;;29.57;16.33;;;;;;;;;;4733751;30;20627;-86
2022/01/12 12:20:45;;;;;;;26.87;16.60;;;;;;;;;;4744145;30;20930;-87
2022/01/12 12:23:49;;;;;;;29.23;16.03;;;;;;;;;;4753638;30;20644;-87
2022/01/12 12:26:54;;;;;;;25.40;16.03;;;;;;;;;;4733312;30;20616;-87
2022/01/12 12:29:58;;;;;;;24.97;14.33;;;;;;;;;;4753760;30;20620;-87
2022/01/12 12:33:08;;;;;;;30.30;16.67;;;;;;;;;;4733088;30;20651;-87
2022/01/12 12:36:14;;;;;;;24.43;15.47;;;;;;;;;;4733520;30;20910;-87
2022/01/12 12:39:18;;;;;;;22.53;13.97;;;;;;;;;;4743476;30;20630;-87
2022/01/12 12:42:22;;;;;;;26.57;14.03;;;;;;;;;;4733287;30;20993;-87
2022/01/12 12:45:49;;;;;;;26.17;15.73;;;;;;;;;;4733329;30;20557;-88
2022/01/12 12:48:53;;;;;;;24.47;13.73;;;;;;;;;;4732691;30;20914;-88
2022/01/12 12:52:02;;;;;;;23.37;14.27;;;;;;;;;;4733317;30;20973;-88
2022/01/12 12:55:16;;;;;;;23.83;14.90;;;;;;;;;;4725177;30;20620;-88
2022/01/12 12:58:27;;;;;;;25.33;15.80;;;;;;;;;;4715615;30;20637;-88
2022/01/12 13:01:31;;;;;;;27.73;15.80;;;;;;;;;;4725566;30;20637;-88
2022/01/12 13:04:35;;;;;;;28.40;16.23;;;;;;;;;;4765347;24;20730;-90
2022/01/12 13:07:41;;;;;;;23.10;14.13;;;;;;;;;;4750843;30;20563;-90
2022/01/12 13:10:46;;;;;;;25.27;15.20;;;;;;;;;;4750386;30;20627;-90
2022/01/12 13:14:02;;;;;;;24.03;15.17;;;;;;;;;;4750407;30;20642;-90
2022/01/12 13:17:37;;;;;;;25.30;15.57;;;;;;;;;;4750538;30;20592;-90
2022/01/12 13:24:07;;;;;;;24.30;14.33;;;;;;;;;;4760273;30;20655;-91
2022/01/12 13:27:11;;;;;;;26.13;15.73;;;;;;;;;;4750669;30;21200;-91
2022/01/12 13:30:29;;;;;;;25.07;15.97;;;;;;;;;;4750640;30;20559;-90
2022/01/12 13:33:37;;;;;;;25.67;15.13;;;;;;;;;;4750349;30;20647;-91
2022/01/12 13:36:49;;;;;;;24.63;15.43;;;;;;;;;;4750265;30;20568;-90
2022/01/12 13:40:12;;;;;;;26.23;14.87;;;;;;;;;;4750487;30;20619;-90
2022/01/12 13:43:20;;;;;;;24.47;14.87;;;;;;;;;;4760111;30;20654;-90
2022/01/12 13:46:33;;;;;;;21.73;13.80;;;;;;;;;;4750197;30;20564;-90
2022/01/12 13:49:37;;;;;;;23.43;15.20;;;;;;;;;;4749929;30;20615;-90
2022/01/12 13:52:52;;;;;;;26.03;14.80;;;;;;;;;;4749829;30;20567;-90
2022/01/12 13:55:56;;;;;;;29.83;17.50;;;;;;;;;;4760402;30;20572;-90
2022/01/12 13:59:00;;;;;;;27.47;16.43;;;;;;;;;;4749837;30;20670;-91
2022/01/12 14:02:12;;;;;;;33.37;17.77;;;;;;;;;;4749515;30;20636;-90
2022/01/12 14:05:20;;;;;;;26.00;15.93;;;;;;;;;;4749862;30;20574;-91
2022/01/12 14:08:51;;;;;;;25.00;15.67;;;;;;;;;;4750116;30;20555;-91
2022/01/12 14:11:55;;;;;;;26.53;15.33;;;;;;;;;;4761356;30;20567;-91
2022/01/12 14:15:03;;;;;;;26.47;16.10;;;;;;;;;;4750317;30;20571;-92
2022/01/12 14:18:16;;;;;;;26.90;15.77;;;;;;;;;;4751035;30;20559;-91
2022/01/12 14:21:21;;;;;;;27.67;16.13;;;;;;;;;;4751821;30;20568;-92
2022/01/12 14:24:25;;;;;;;29.63;19.13;;;;;;;;;;4751451;30;20642;-92
2022/01/12 14:27:45;;;;;;;47.33;27.40;;;;;;;;;;4750103;30;20564;-88
2022/01/12 14:30:49;;;;;;;26.10;16.80;;;;;;;;;;4749675;30;20913;-88
2022/01/12 14:33:54;;;;;;;28.67;17.17;;;;;;;;;;4749737;30;20655;-88
2022/01/12 14:36:58;;;;;;;27.87;16.67;;;;;;;;;;4749254;30;21193;-88
2022/01/12 14:40:28;;;;;;;27.37;16.50;;;;;;;;;;4759960;30;20620;-88
2022/01/12 14:43:52;;;;;;;30.93;18.50;;;;;;;;;;4769862;30;20989;-89
2022/01/12 14:47:00;;;;;;;27.53;16.53;;;;;;;;;;4759372;30;20623;-88
2022/01/12 14:50:08;;;;;;;28.63;16.97;;;;;;;;;;4759817;30;21121;-89
2022/01/12 14:53:21;;;;;;;26.37;16.07;;;;;;;;;;4769649;30;20646;-89
2022/01/12 14:56:34;;;;;;;36.80;24.03;;;;;;;;;;4760618;30;20568;-85
2022/01/12 14:59:38;;;;;;;28.97;17.67;;;;;;;;;;4769928;30;20960;-86
2022/01/12 15:02:47;;;;;;;24.90;16.27;;;;;;;;;;4749558;30;20567;-86
2022/01/12 15:05:51;;;;;;;48.33;26.70;;;;;;;;;;4749519;30;21107;-88
2022/01/12 15:08:57;;;;;;;43.40;24.83;;;;;;;;;;4749789;30;20945;-88
2022/01/12 15:12:01;;;;;;;40.73;25.10;;;;;;;;;;4761161;30;20614;-88
2022/01/12 15:15:07;;;;;;;45.43;24.77;;;;;;;;;;4752649;30;20564;-86
2022/01/12 15:18:11;;;;;;;41.23;20.97;;;;;;;;;;4762826;30;20560;-87
2022/01/12 15:21:17;;;;;;;34.30;24.30;;;;;;;;;;4754136;30;20740;-88
2022/01/12 15:24:21;;;;;;;29.42;22.00;;;;;;;;;;4770145;30;20763;-86
2022/01/12 15:27:53;;;;;;;27.67;21.07;;;;;;;;;;4779070;30;20767;-91
2022/01/12 15:30:57;;;;;;;26.90;17.20;;;;;;;;;;4752467;30;20213;-87
2022/01/12 15:34:01;;;;;;;22.93;14.40;;;;;;;;;;4752518;30;20647;-87
2022/01/12 15:37:06;;;;;;;25.70;15.83;;;;;;;;;;4753517;30;20559;-87
2022/01/12 15:40:10;;;;;;;23.17;14.50;;;;;;;;;;4752197;30;20615;-87
2022/01/12 15:43:14;;;;;;;22.27;14.03;;;;;;;;;;4762720;30;21206;-87
2022/01/12 15:46:18;;;;;;;25.10;15.20;;;;;;;;;;4772840;30;20556;-87
2022/01/12 15:49:22;;;;;;;24.57;14.97;;;;;;;;;;4763125;30;20556;-87
2022/01/12 15:52:26;;;;;;;24.90;13.40;;;;;;;;;;4752395;30;20993;-88
2022/01/12 15:55:31;;;;;;;30.20;20.40;;;;;;;;;;4752281;30;20555;-87
2022/01/12 15:58:36;;;;;;;28.50;18.67;;;;;;;;;;4752434;30;21005;-87
2022/01/12 16:01:40;;;;;;;25.07;15.03;;;;;;;;;;4752332;30;20559;-88
2022/01/12 16:04:47;;;;;;;28.40;16.80;;;;;;;;;;4751812;30;20654;-88
2022/01/12 16:07:51;;;;;;;27.20;15.53;;;;;;;;;;4752136;30;20596;-88
2022/01/12 16:10:57;;;;;;;24.60;14.87;;;;;;;;;;4761999;30;20572;-87
2022/01/12 16:14:01;;;;;;;23.73;14.87;;;;;;;;;;4761652;30;20647;-87
2022/01/12 16:17:06;;;;;;;25.67;16.30;;;;;;;;;;4751757;30;20563;-89
2022/01/12 16:20:10;;;;;;;25.63;15.93;;;;;;;;;;4751292;30;20636;-88
2022/01/12 16:23:21;;;;;;;25.87;15.33;;;;;;;;;;4751179;30;20643;-88
2022/01/12 16:26:25;;;;;;;27.00;15.43;;;;;;;;;;4751776;30;20556;-88
2022/01/12 16:29:37;;;;;;;31.10;15.97;;;;;;;;;;4761459;30;20559;-87
2022/01/12 16:32:42;;;;;;;26.43;14.93;;;;;;;;;;4761351;30;20634;-88
2022/01/12 16:35:51;;;;;;;28.60;16.23;;;;;;;;;;4761613;30;20984;-88
2022/01/12 16:38:56;;;;;;;26.40;14.87;;;;;;;;;;4761184;30;20619;-88
2022/01/12 16:42:01;;;;;;;25.53;14.70;;;;;;;;;;4751614;30;20631;-89
2022/01/12 16:45:05;;;;;;;23.83;14.33;;;;;;;;;;4772462;30;20568;-90
2022/01/12 16:48:10;;;;;;;27.73;15.33;;;;;;;;;;4752390;30;20580;-89
2022/01/12 16:51:14;;;;;;;25.60;15.10;;;;;;;;;;4761638;30;21123;-89
2022/01/12 16:54:18;;;;;;;25.10;15.27;;;;;;;;;;4751523;30;20651;-88
2022/01/12 16:57:24;;;;;;;25.43;15.37;;;;;;;;;;4762304;30;20563;-86
2022/01/12 17:00:30;;;;;;;25.23;15.57;;;;;;;;;;4752207;30;20624;-86
2022/01/12 17:03:37;;;;;;;34.47;18.97;;;;;;;;;;4750953;30;20658;-88
2022/01/12 17:06:41;;;;;;;26.13;16.43;;;;;;;;;;4751165;30;20562;-90
2022/01/12 17:09:45;;;;;;;26.57;15.47;;;;;;;;;;4751020;30;20564;-88
2022/01/12 17:12:49;;;;;;;73.27;35.00;;;;;;;;;;4760937;30;21226;-87
2022/01/12 17:15:53;;;;;;;73.87;36.47;;;;;;;;;;4760709;30;20630;-88
2022/01/12 17:19:01;;;;;;;34.27;21.17;;;;;;;;;;4750620;30;20619;-88
2022/01/12 17:22:07;;;;;;;33.73;20.53;;;;;;;;;;4750848;30;20564;-87
2022/01/12 17:25:26;;;;;;;24.50;15.07;;;;;;;;;;4750622;30;20564;-89
2022/01/12 17:28:32;;;;;;;29.17;16.77;;;;;;;;;;4733736;30;20934;-87
2022/01/12 17:31:36;;;;;;;32.70;18.90;;;;;;;;;;4733255;30;20623;-88
2022/01/12 17:34:41;;;;;;;30.60;17.43;;;;;;;;;;4731860;30;20632;-87
2022/01/12 17:37:45;;;;;;;31.77;17.37;;;;;;;;;;4732273;30;20584;-88
2022/01/12 17:40:50;;;;;;;30.57;17.93;;;;;;;;;;4742138;30;20648;-87
2022/01/12 17:43:55;;;;;;;27.93;17.10;;;;;;;;;;4732408;30;20644;-89
2022/01/12 17:47:02;;;;;;;26.10;16.50;;;;;;;;;;4742773;30;20628;-87
2022/01/12 17:50:07;;;;;;;32.97;18.70;;;;;;;;;;4742511;30;20973;-86
2022/01/12 17:53:24;;;;;;;32.93;18.83;;;;;;;;;;4742445;30;20652;-90
2022/01/12 17:56:28;;;;;;;34.83;20.60;;;;;;;;;;4732658;30;20572;-89
2022/01/12 17:59:32;;;;;;;42.77;22.77;;;;;;;;;;4742861;30;21191;-88
2022/01/12 18:02:36;;;;;;;35.37;20.87;;;;;;;;;;4731877;30;20568;-87
2022/01/12 18:05:40;;;;;;;36.70;20.23;;;;;;;;;;4742152;30;20627;-89
2022/01/12 18:08:45;;;;;;;32.53;19.67;;;;;;;;;;4732004;30;20584;-89
2022/01/12 18:11:49;;;;;;;28.83;18.33;;;;;;;;;;4732571;30;21145;-88
2022/01/12 18:14:54;;;;;;;31.50;18.93;;;;;;;;;;4741861;30;20580;-89
2022/01/12 18:18:00;;;;;;;35.50;18.97;;;;;;;;;;4742710;30;20581;-89
2022/01/12 18:21:05;;;;;;;32.87;19.00;;;;;;;;;;4732127;30;20628;-87
2022/01/12 18:24:09;;;;;;;32.43;19.37;;;;;;;;;;4741887;30;21328;-89
2022/01/12 18:27:14;;;;;;;31.80;18.30;;;;;;;;;;4742212;30;20710;-89
2022/01/12 18:30:18;;;;;;;29.67;18.27;;;;;;;;;;4742880;30;20637;-87
2022/01/12 18:33:23;;;;;;;32.50;19.33;;;;;;;;;;4732297;30;20651;-88
2022/01/12 18:36:28;;;;;;;33.80;19.40;;;;;;;;;;4731899;30;20631;-89
2022/01/12 18:39:33;;;;;;;36.87;21.00;;;;;;;;;;4752183;30;20584;-87
2022/01/12 18:42:37;;;;;;;37.97;21.07;;;;;;;;;;4739024;30;20608;-90
2022/01/12 18:45:43;;;;;;;34.13;20.47;;;;;;;;;;4753621;30;20917;-88
2022/01/12 18:48:47;;;;;;;34.80;20.37;;;;;;;;;;4756486;30;20572;-89
2022/01/12 18:51:52;;;;;;;31.73;19.33;;;;;;;;;;4771351;30;20614;-90
2022/01/12 18:54:56;;;;;;;31.30;18.53;;;;;;;;;;4758766;30;20604;-90
2022/01/12 18:58:00;;;;;;;27.47;16.50;;;;;;;;;;4763094;30;20650;-91
2022/01/12 19:01:04;;;;;;;28.40;17.10;;;;;;;;;;4752780;30;20976;-92
2022/01/12 19:04:11;;;;;;;29.27;17.20;;;;;;;;;;4761966;25;20710;-91
2022/01/12 19:07:16;;;;;;;29.97;16.83;;;;;;;;;;4752448;30;20623;-91
2022/01/12 19:10:22;;;;;;;28.97;17.37;;;;;;;;;;4773403;30;20615;-91
2022/01/12 19:13:26;;;;;;;33.53;19.80;;;;;;;;;;4747212;30;21008;-92
2022/01/12 19:16:30;;;;;;;31.93;18.40;;;;;;;;;;4745541;30;20925;-91
2022/01/12 19:19:34;;;;;;;33.50;18.33;;;;;;;;;;4735040;30;20588;-91